sensor_id;sensor_type;location;lat;lon;timestamp;pressure;altitude;pressure_sealevel;temperature;humidity
69751;BME280;57335;52.288;6.056;2023-09-19T00:00:46;100638.69;;;14.51;100.00
69751;BME280;57335;52.288;6.056;2023-09-19T00:03:14;100629.00;;;14.40;100.00
69751;BME280;57335;52.288;6.056;2023-09-19T00:05:41;100633.22;;;14.41;100.00
69751;BME280;57335;52.288;6.056;2023-09-19T00:08:12;100644.47;;;14.36;100.00
69751;BME280;57335;52.288;6.056;2023-09-19T00:10:42;100649.97;;;14.35;100.00
69751;BME280;57335;52.288;6.056;2023-09-19T00:13:09;100647.28;;;14.30;100.00
69751;BME280;57335;52.288;6.056;2023-09-19T00:15:42;100639.16;;;14.20;100.00
69751;BME280;57335;52.288;6.056;2023-09-19T00:18:09;100652.91;;;14.22;100.00
69751;BME280;57335;52.288;6.056;2023-09-19T00:20:36;100649.03;;;14.12;100.00
69751;BME280;57335;52.288;6.056;2023-09-19T00:23:03;100652.16;;;14.09;100.00
69751;BME280;57335;52.288;6.056;2023-09-19T00:25:31;100663.25;;;14.11;100.00
69751;BME280;57335;52.288;6.056;2023-09-19T00:27:58;100665.56;;;14.08;100.00
69751;BME280;57335;52.288;6.056;2023-09-19T00:30:25;100666.91;;;14.10;100.00
69751;BME280;57335;52.288;6.056;2023-09-19T00:32:51;100671.97;;;14.12;100.00
69751;BME280;57335;52.288;6.056;2023-09-19T00:35:21;100665.00;;;14.06;100.00
69751;BME280;57335;52.288;6.056;2023-09-19T00:37:51;100669.00;;;14.08;100.00
69751;BME280;57335;52.288;6.056;2023-09-19T00:40:18;100667.47;;;14.12;100.00
69751;BME280;57335;52.288;6.056;2023-09-19T00:42:46;100670.91;;;14.13;100.00
69751;BME280;57335;52.288;6.056;2023-09-19T00:45:14;100671.75;;;14.13;100.00
69751;BME280;57335;52.288;6.056;2023-09-19T00:47:44;100662.13;;;14.07;100.00
69751;BME280;57335;52.288;6.056;2023-09-19T00:50:19;100681.47;;;14.13;100.00
69751;BME280;57335;52.288;6.056;2023-09-19T00:52:48;100686.97;;;14.11;100.00
69751;BME280;57335;52.288;6.056;2023-09-19T00:55:17;100688.78;;;14.11;100.00
69751;BME280;57335;52.288;6.056;2023-09-19T00:57:46;100688.13;;;14.04;100.00
69751;BME280;57335;52.288;6.056;2023-09-19T01:00:14;100683.09;;;14.02;100.00
69751;BME280;57335;52.288;6.056;2023-09-19T01:02:42;100692.63;;;14.03;100.00
69751;BME280;57335;52.288;6.056;2023-09-19T01:05:11;100684.81;;;13.96;100.00
69751;BME280;57335;52.288;6.056;2023-09-19T01:07:38;100694.56;;;13.96;100.00
69751;BME280;57335;52.288;6.056;2023-09-19T01:10:11;100678.91;;;13.89;100.00
69751;BME280;57335;52.288;6.056;2023-09-19T01:12:45;100700.28;;;13.93;100.00
69751;BME280;57335;52.288;6.056;2023-09-19T01:26:34;100691.50;;;13.75;100.00
69751;BME280;57335;52.288;6.056;2023-09-19T01:29:17;100702.50;;;13.72;100.00
69751;BME280;57335;52.288;6.056;2023-09-19T01:31:51;100705.47;;;13.76;100.00
69751;BME280;57335;52.288;6.056;2023-09-19T01:34:20;100706.25;;;13.76;100.00
69751;BME280;57335;52.288;6.056;2023-09-19T01:36:47;100708.91;;;13.76;100.00
69751;BME280;57335;52.288;6.056;2023-09-19T01:39:14;100709.69;;;13.77;100.00
69751;BME280;57335;52.288;6.056;2023-09-19T01:44:22;100705.03;;;13.79;100.00
69751;BME280;57335;52.288;6.056;2023-09-19T01:46:51;100702.63;;;13.77;100.00
69751;BME280;57335;52.288;6.056;2023-09-19T01:49:38;100708.44;;;13.80;100.00
69751;BME280;57335;52.288;6.056;2023-09-19T01:52:12;100702.03;;;13.75;100.00
69751;BME280;57335;52.288;6.056;2023-09-19T01:54:51;100707.66;;;13.79;100.00
69751;BME280;57335;52.288;6.056;2023-09-19T01:57:28;100710.50;;;13.77;100.00
69751;BME280;57335;52.288;6.056;2023-09-19T02:00:07;100706.47;;;13.75;100.00
69751;BME280;57335;52.288;6.056;2023-09-19T02:02:38;100713.94;;;13.78;100.00
69751;BME280;57335;52.288;6.056;2023-09-19T02:05:06;100705.13;;;13.72;100.00
69751;BME280;57335;52.288;6.056;2023-09-19T02:07:33;100707.31;;;13.75;100.00
69751;BME280;57335;52.288;6.056;2023-09-19T02:09:59;100715.66;;;13.72;100.00
69751;BME280;57335;52.288;6.056;2023-09-19T02:12:32;100720.13;;;13.72;100.00
69751;BME280;57335;52.288;6.056;2023-09-19T02:14:59;100710.03;;;13.69;100.00
69751;BME280;57335;52.288;6.056;2023-09-19T02:17:25;100713.72;;;13.68;100.00
69751;BME280;57335;52.288;6.056;2023-09-19T02:19:53;100720.69;;;13.74;100.00
69751;BME280;57335;52.288;6.056;2023-09-19T02:22:21;100710.38;;;13.72;100.00
69751;BME280;57335;52.288;6.056;2023-09-19T02:24:49;100702.50;;;13.72;100.00
69751;BME280;57335;52.288;6.056;2023-09-19T02:27:15;100692.19;;;13.71;100.00
69751;BME280;57335;52.288;6.056;2023-09-19T02:29:44;100689.88;;;13.74;100.00
69751;BME280;57335;52.288;6.056;2023-09-19T02:32:11;100708.22;;;13.81;100.00
69751;BME280;57335;52.288;6.056;2023-09-19T02:34:38;100702.97;;;13.81;100.00
69751;BME280;57335;52.288;6.056;2023-09-19T02:37:08;100713.25;;;13.83;100.00
69751;BME280;57335;52.288;6.056;2023-09-19T02:39:34;100720.69;;;13.86;100.00
69751;BME280;57335;52.288;6.056;2023-09-19T02:42:01;100711.66;;;13.82;100.00
69751;BME280;57335;52.288;6.056;2023-09-19T02:44:30;100702.13;;;13.81;100.00
69751;BME280;57335;52.288;6.056;2023-09-19T02:46:56;100716.44;;;13.85;100.00
69751;BME280;57335;52.288;6.056;2023-09-19T02:49:23;100726.53;;;13.88;100.00
69751;BME280;57335;52.288;6.056;2023-09-19T02:51:50;100722.28;;;13.87;100.00
69751;BME280;57335;52.288;6.056;2023-09-19T02:54:17;100723.34;;;13.86;100.00
69751;BME280;57335;52.288;6.056;2023-09-19T02:56:43;100728.59;;;13.86;100.00
69751;BME280;57335;52.288;6.056;2023-09-19T02:59:10;100726.19;;;13.84;100.00
69751;BME280;57335;52.288;6.056;2023-09-19T03:01:36;100720.00;;;13.79;100.00
69751;BME280;57335;52.288;6.056;2023-09-19T03:04:06;100734.31;;;13.83;100.00
69751;BME280;57335;52.288;6.056;2023-09-19T03:06:33;100735.94;;;13.84;100.00
69751;BME280;57335;52.288;6.056;2023-09-19T03:08:59;100732.94;;;13.80;100.00
69751;BME280;57335;52.288;6.056;2023-09-19T03:11:26;100736.38;;;13.81;100.00
69751;BME280;57335;52.288;6.056;2023-09-19T03:13:53;100732.81;;;13.75;100.00
69751;BME280;57335;52.288;6.056;2023-09-19T03:16:19;100724.34;;;13.73;100.00
69751;BME280;57335;52.288;6.056;2023-09-19T03:18:48;100729.41;;;13.74;100.00
69751;BME280;57335;52.288;6.056;2023-09-19T03:21:16;100719.56;;;13.70;100.00
69751;BME280;57335;52.288;6.056;2023-09-19T03:23:43;100725.16;;;13.73;100.00
69751;BME280;57335;52.288;6.056;2023-09-19T03:26:12;100726.31;;;13.66;100.00
69751;BME280;57335;52.288;6.056;2023-09-19T03:28:40;100734.78;;;13.68;100.00
69751;BME280;57335;52.288;6.056;2023-09-19T03:31:07;100734.44;;;13.64;100.00
69751;BME280;57335;52.288;6.056;2023-09-19T03:33:34;100740.28;;;13.66;100.00
69751;BME280;57335;52.288;6.056;2023-09-19T03:36:01;100731.13;;;13.57;100.00
69751;BME280;57335;52.288;6.056;2023-09-19T03:38:31;100728.16;;;13.53;100.00
69751;BME280;57335;52.288;6.056;2023-09-19T03:40:58;100737.06;;;13.52;100.00
69751;BME280;57335;52.288;6.056;2023-09-19T03:43:25;100733.28;;;13.48;100.00
69751;BME280;57335;52.288;6.056;2023-09-19T03:45:53;100736.25;;;13.52;100.00
69751;BME280;57335;52.288;6.056;2023-09-19T03:48:21;100735.69;;;13.50;100.00
69751;BME280;57335;52.288;6.056;2023-09-19T03:50:48;100730.06;;;13.46;100.00
69751;BME280;57335;52.288;6.056;2023-09-19T03:53:14;100711.97;;;13.38;100.00
69751;BME280;57335;52.288;6.056;2023-09-19T03:55:41;100721.72;;;13.38;100.00
69751;BME280;57335;52.288;6.056;2023-09-19T03:58:08;100722.72;;;13.36;100.00
69751;BME280;57335;52.288;6.056;2023-09-19T04:00:34;100712.50;;;13.28;100.00
69751;BME280;57335;52.288;6.056;2023-09-19T04:03:04;100724.22;;;13.32;100.00
69751;BME280;57335;52.288;6.056;2023-09-19T04:05:33;100725.88;;;13.27;100.00
69751;BME280;57335;52.288;6.056;2023-09-19T04:08:00;100726.00;;;13.20;100.00
69751;BME280;57335;52.288;6.056;2023-09-19T04:10:26;100736.16;;;13.16;100.00
69751;BME280;57335;52.288;6.056;2023-09-19T04:12:53;100729.41;;;13.09;100.00
69751;BME280;57335;52.288;6.056;2023-09-19T04:15:20;100741.53;;;13.10;100.00
69751;BME280;57335;52.288;6.056;2023-09-19T04:17:50;100741.84;;;13.02;100.00
69751;BME280;57335;52.288;6.056;2023-09-19T04:20:17;100754.22;;;13.01;100.00
69751;BME280;57335;52.288;6.056;2023-09-19T04:22:46;100767.94;;;13.03;100.00
69751;BME280;57335;52.288;6.056;2023-09-19T04:25:13;100754.06;;;12.96;100.00
69751;BME280;57335;52.288;6.056;2023-09-19T04:27:39;100752.50;;;12.95;100.00
69751;BME280;57335;52.288;6.056;2023-09-19T04:30:08;100764.22;;;12.92;100.00
69751;BME280;57335;52.288;6.056;2023-09-19T04:32:39;100768.69;;;12.92;100.00
69751;BME280;57335;52.288;6.056;2023-09-19T04:35:09;100774.41;;;12.89;100.00
69751;BME280;57335;52.288;6.056;2023-09-19T04:37:37;100780.69;;;12.88;100.00
69751;BME280;57335;52.288;6.056;2023-09-19T04:40:07;100784.00;;;12.83;100.00
69751;BME280;57335;52.288;6.056;2023-09-19T04:42:39;100800.00;;;12.82;100.00
69751;BME280;57335;52.288;6.056;2023-09-19T04:45:07;100789.78;;;12.73;100.00
69751;BME280;57335;52.288;6.056;2023-09-19T04:47:34;100801.88;;;12.74;100.00
69751;BME280;57335;52.288;6.056;2023-09-19T04:50:00;100796.13;;;12.66;100.00
69751;BME280;57335;52.288;6.056;2023-09-19T04:52:26;100800.81;;;12.64;100.00
69751;BME280;57335;52.288;6.056;2023-09-19T04:54:53;100796.88;;;12.54;100.00
69751;BME280;57335;52.288;6.056;2023-09-19T04:57:19;100802.56;;;12.51;100.00
69751;BME280;57335;52.288;6.056;2023-09-19T04:59:46;100805.78;;;12.53;100.00
69751;BME280;57335;52.288;6.056;2023-09-19T05:02:12;100805.00;;;12.53;100.00
69751;BME280;57335;52.288;6.056;2023-09-19T05:04:40;100800.75;;;12.52;100.00
69751;BME280;57335;52.288;6.056;2023-09-19T05:07:06;100800.06;;;12.56;100.00
69751;BME280;57335;52.288;6.056;2023-09-19T05:09:32;100803.75;;;12.55;100.00
69751;BME280;57335;52.288;6.056;2023-09-19T05:12:00;100794.25;;;12.54;100.00
69751;BME280;57335;52.288;6.056;2023-09-19T05:14:27;100792.44;;;12.55;100.00
69751;BME280;57335;52.288;6.056;2023-09-19T05:16:53;100790.38;;;12.57;100.00
69751;BME280;57335;52.288;6.056;2023-09-19T05:19:20;100791.19;;;12.57;100.00
69751;BME280;57335;52.288;6.056;2023-09-19T05:21:46;100796.81;;;12.61;100.00
69751;BME280;57335;52.288;6.056;2023-09-19T05:24:13;100801.91;;;12.56;100.00
69751;BME280;57335;52.288;6.056;2023-09-19T05:26:40;100801.69;;;12.57;100.00
69751;BME280;57335;52.288;6.056;2023-09-19T05:29:07;100794.91;;;12.50;100.00
69751;BME280;57335;52.288;6.056;2023-09-19T05:31:35;100802.69;;;12.56;100.00
69751;BME280;57335;52.288;6.056;2023-09-19T05:34:07;100812.44;;;12.56;100.00
69751;BME280;57335;52.288;6.056;2023-09-19T05:36:33;100816.44;;;12.58;100.00
69751;BME280;57335;52.288;6.056;2023-09-19T05:39:00;100798.69;;;12.54;100.00
69751;BME280;57335;52.288;6.056;2023-09-19T05:41:26;100794.41;;;12.60;100.00
69751;BME280;57335;52.288;6.056;2023-09-19T05:43:53;100805.03;;;12.65;100.00
69751;BME280;57335;52.288;6.056;2023-09-19T05:46:20;100815.63;;;12.76;100.00
69751;BME280;57335;52.288;6.056;2023-09-19T05:48:47;100796.19;;;12.77;100.00
69751;BME280;57335;52.288;6.056;2023-09-19T05:51:14;100799.25;;;12.93;100.00
69751;BME280;57335;52.288;6.056;2023-09-19T05:53:40;100810.34;;;13.25;100.00
69751;BME280;57335;52.288;6.056;2023-09-19T05:56:09;100804.72;;;13.52;100.00
69751;BME280;57335;52.288;6.056;2023-09-19T05:58:37;100801.56;;;13.85;100.00
69751;BME280;57335;52.288;6.056;2023-09-19T06:01:05;100814.03;;;14.25;100.00
69751;BME280;57335;52.288;6.056;2023-09-19T06:03:33;100816.19;;;14.52;100.00
69751;BME280;57335;52.288;6.056;2023-09-19T06:06:02;100830.97;;;14.65;100.00
69751;BME280;57335;52.288;6.056;2023-09-19T06:08:28;100825.44;;;14.54;100.00
69751;BME280;57335;52.288;6.056;2023-09-19T06:10:55;100835.09;;;14.37;100.00
69751;BME280;57335;52.288;6.056;2023-09-19T06:13:21;100813.91;;;14.20;100.00
69751;BME280;57335;52.288;6.056;2023-09-19T06:15:48;100824.34;;;14.27;100.00
69751;BME280;57335;52.288;6.056;2023-09-19T06:18:15;100824.03;;;14.11;100.00
69751;BME280;57335;52.288;6.056;2023-09-19T06:20:47;100843.25;;;14.12;100.00
69751;BME280;57335;52.288;6.056;2023-09-19T06:23:13;100835.47;;;14.05;100.00
69751;BME280;57335;52.288;6.056;2023-09-19T06:25:40;100842.91;;;14.08;100.00
69751;BME280;57335;52.288;6.056;2023-09-19T06:28:07;100848.06;;;14.15;100.00
69751;BME280;57335;52.288;6.056;2023-09-19T06:30:34;100843.34;;;14.29;100.00
69751;BME280;57335;52.288;6.056;2023-09-19T06:33:01;100835.91;;;14.49;100.00
69751;BME280;57335;52.288;6.056;2023-09-19T06:35:28;100853.50;;;14.84;100.00
69751;BME280;57335;52.288;6.056;2023-09-19T06:37:56;100854.75;;;15.22;100.00
69751;BME280;57335;52.288;6.056;2023-09-19T06:40:24;100851.28;;;15.67;100.00
69751;BME280;57335;52.288;6.056;2023-09-19T06:42:52;100856.53;;;16.13;99.26
69751;BME280;57335;52.288;6.056;2023-09-19T06:45:19;100849.22;;;16.59;95.89
69751;BME280;57335;52.288;6.056;2023-09-19T06:47:50;100836.53;;;17.05;94.03
69751;BME280;57335;52.288;6.056;2023-09-19T06:50:18;100835.22;;;17.62;93.74
69751;BME280;57335;52.288;6.056;2023-09-19T06:52:46;100839.56;;;18.16;86.28
69751;BME280;57335;52.288;6.056;2023-09-19T06:55:17;100831.53;;;18.48;83.44
69751;BME280;57335;52.288;6.056;2023-09-19T06:57:46;100818.34;;;18.74;84.82
69751;BME280;57335;52.288;6.056;2023-09-19T07:00:13;100827.72;;;18.87;81.01
69751;BME280;57335;52.288;6.056;2023-09-19T07:03:04;100833.81;;;18.82;80.34
69751;BME280;57335;52.288;6.056;2023-09-19T07:05:39;100835.31;;;18.68;80.79
69751;BME280;57335;52.288;6.056;2023-09-19T07:08:07;100827.81;;;18.49;82.44
69751;BME280;57335;52.288;6.056;2023-09-19T07:10:34;100826.19;;;18.38;81.95
69751;BME280;57335;52.288;6.056;2023-09-19T07:13:02;100826.22;;;18.01;84.05
69751;BME280;57335;52.288;6.056;2023-09-19T07:15:31;100832.03;;;17.92;86.11
69751;BME280;57335;52.288;6.056;2023-09-19T07:18:00;100838.34;;;17.86;86.50
69751;BME280;57335;52.288;6.056;2023-09-19T07:20:27;100832.25;;;17.91;86.02
69751;BME280;57335;52.288;6.056;2023-09-19T07:22:56;100825.25;;;17.80;85.49
69751;BME280;57335;52.288;6.056;2023-09-19T07:25:22;100832.50;;;17.84;86.54
69751;BME280;57335;52.288;6.056;2023-09-19T07:27:49;100838.06;;;17.88;85.39
69751;BME280;57335;52.288;6.056;2023-09-19T07:30:17;100837.78;;;17.84;86.74
69751;BME280;57335;52.288;6.056;2023-09-19T07:32:44;100842.06;;;17.90;86.46
69751;BME280;57335;52.288;6.056;2023-09-19T07:35:10;100845.28;;;17.92;87.52
69751;BME280;57335;52.288;6.056;2023-09-19T07:37:38;100845.28;;;17.92;86.58
69751;BME280;57335;52.288;6.056;2023-09-19T07:40:08;100855.22;;;17.80;88.11
69751;BME280;57335;52.288;6.056;2023-09-19T07:42:38;100847.16;;;17.65;87.66
69751;BME280;57335;52.288;6.056;2023-09-19T07:45:08;100844.75;;;17.63;88.17
69751;BME280;57335;52.288;6.056;2023-09-19T07:47:34;100859.69;;;17.74;89.20
69751;BME280;57335;52.288;6.056;2023-09-19T07:50:02;100858.63;;;17.75;89.82
69751;BME280;57335;52.288;6.056;2023-09-19T07:52:29;100856.56;;;17.83;89.28
69751;BME280;57335;52.288;6.056;2023-09-19T07:54:56;100871.78;;;17.92;89.92
69751;BME280;57335;52.288;6.056;2023-09-19T07:57:24;100867.88;;;18.05;89.87
69751;BME280;57335;52.288;6.056;2023-09-19T07:59:51;100854.69;;;18.10;88.14
69751;BME280;57335;52.288;6.056;2023-09-19T08:02:17;100862.47;;;18.27;86.84
69751;BME280;57335;52.288;6.056;2023-09-19T08:04:45;100854.88;;;18.46;86.47
69751;BME280;57335;52.288;6.056;2023-09-19T08:07:13;100861.84;;;18.63;85.88
69751;BME280;57335;52.288;6.056;2023-09-19T08:09:39;100867.94;;;18.63;83.54
69751;BME280;57335;52.288;6.056;2023-09-19T08:12:07;100858.22;;;18.79;85.16
69751;BME280;57335;52.288;6.056;2023-09-19T08:14:36;100858.00;;;18.91;82.29
69751;BME280;57335;52.288;6.056;2023-09-19T08:17:04;100858.31;;;19.05;82.63
69751;BME280;57335;52.288;6.056;2023-09-19T08:19:32;100869.53;;;19.32;82.50
69751;BME280;57335;52.288;6.056;2023-09-19T08:21:59;100872.72;;;19.60;81.71
69751;BME280;57335;52.288;6.056;2023-09-19T08:24:26;100861.81;;;19.98;79.34
69751;BME280;57335;52.288;6.056;2023-09-19T08:26:55;100870.00;;;20.37;77.91
69751;BME280;57335;52.288;6.056;2023-09-19T08:29:23;100876.81;;;20.79;77.33
69751;BME280;57335;52.288;6.056;2023-09-19T08:31:55;100872.94;;;21.06;73.08
69751;BME280;57335;52.288;6.056;2023-09-19T08:34:23;100863.47;;;21.29;72.59
69751;BME280;57335;52.288;6.056;2023-09-19T08:36:54;100851.38;;;21.47;70.48
69751;BME280;57335;52.288;6.056;2023-09-19T08:39:24;100860.63;;;21.55;70.52
69751;BME280;57335;52.288;6.056;2023-09-19T08:41:58;100857.56;;;21.71;68.33
69751;BME280;57335;52.288;6.056;2023-09-19T08:44:26;100855.94;;;21.76;68.87
69751;BME280;57335;52.288;6.056;2023-09-19T08:46:55;100854.56;;;21.78;68.62
69751;BME280;57335;52.288;6.056;2023-09-19T08:49:33;100865.88;;;21.94;69.93
69751;BME280;57335;52.288;6.056;2023-09-19T08:52:16;100861.78;;;21.78;67.72
69751;BME280;57335;52.288;6.056;2023-09-19T08:54:48;100849.31;;;21.68;68.01
69751;BME280;57335;52.288;6.056;2023-09-19T08:57:15;100864.53;;;21.67;70.58
69751;BME280;57335;52.288;6.056;2023-09-19T08:59:48;100866.19;;;21.58;70.53
69751;BME280;57335;52.288;6.056;2023-09-19T09:02:16;100862.06;;;21.37;70.70
69751;BME280;57335;52.288;6.056;2023-09-19T09:04:45;100855.31;;;21.10;71.56
69751;BME280;57335;52.288;6.056;2023-09-19T09:07:14;100855.38;;;21.00;73.11
69751;BME280;57335;52.288;6.056;2023-09-19T09:09:40;100849.34;;;20.84;72.86
69751;BME280;57335;52.288;6.056;2023-09-19T09:12:11;100860.56;;;20.70;74.28
69751;BME280;57335;52.288;6.056;2023-09-19T09:14:40;100868.31;;;20.57;74.47
69751;BME280;57335;52.288;6.056;2023-09-19T09:17:07;100867.28;;;20.58;76.12
69751;BME280;57335;52.288;6.056;2023-09-19T09:19:34;100844.41;;;20.51;77.05
69751;BME280;57335;52.288;6.056;2023-09-19T09:22:10;100851.31;;;20.63;76.65
69751;BME280;57335;52.288;6.056;2023-09-19T09:24:38;100864.53;;;20.78;77.01
69751;BME280;57335;52.288;6.056;2023-09-19T09:27:16;100856.53;;;20.78;75.73
69751;BME280;57335;52.288;6.056;2023-09-19T09:29:45;100866.88;;;20.90;77.68
69751;BME280;57335;52.288;6.056;2023-09-19T09:32:30;100852.47;;;20.96;75.48
69751;BME280;57335;52.288;6.056;2023-09-19T09:35:01;100851.16;;;20.94;74.03
69751;BME280;57335;52.288;6.056;2023-09-19T09:37:28;100852.69;;;21.05;73.80
69751;BME280;57335;52.288;6.056;2023-09-19T09:40:01;100848.94;;;21.06;72.16
69751;BME280;57335;52.288;6.056;2023-09-19T09:42:40;100837.09;;;20.83;71.93
69751;BME280;57335;52.288;6.056;2023-09-19T09:47:47;100849.19;;;20.65;74.71
69751;BME280;57335;52.288;6.056;2023-09-19T09:50:33;100857.38;;;20.74;75.92
69751;BME280;57335;52.288;6.056;2023-09-19T09:53:25;100839.50;;;20.79;73.94
69751;BME280;57335;52.288;6.056;2023-09-19T09:56:07;100839.78;;;20.83;72.65
69751;BME280;57335;52.288;6.056;2023-09-19T09:58:34;100835.97;;;20.94;74.03
69751;BME280;57335;52.288;6.056;2023-09-19T10:01:03;100849.72;;;21.06;72.06
69751;BME280;57335;52.288;6.056;2023-09-19T10:03:37;100839.81;;;21.17;68.88
69751;BME280;57335;52.288;6.056;2023-09-19T10:06:12;100836.97;;;21.03;70.30
69751;BME280;57335;52.288;6.056;2023-09-19T10:09:05;100836.97;;;21.03;68.74
69751;BME280;57335;52.288;6.056;2023-09-19T10:11:44;100832.25;;;20.90;71.98
69751;BME280;57335;52.288;6.056;2023-09-19T10:14:13;100844.22;;;20.92;70.47
69751;BME280;57335;52.288;6.056;2023-09-19T10:16:46;100833.16;;;20.75;69.13
69751;BME280;57335;52.288;6.056;2023-09-19T10:19:23;100832.63;;;20.73;68.56
69751;BME280;57335;52.288;6.056;2023-09-19T10:21:54;100837.38;;;20.81;72.26
69751;BME280;57335;52.288;6.056;2023-09-19T10:24:22;100831.78;;;20.78;70.71
69751;BME280;57335;52.288;6.056;2023-09-19T10:26:51;100834.75;;;20.71;71.05
69751;BME280;57335;52.288;6.056;2023-09-19T10:29:18;100815.66;;;20.59;71.58
69751;BME280;57335;52.288;6.056;2023-09-19T10:31:47;100822.53;;;20.55;70.83
69751;BME280;57335;52.288;6.056;2023-09-19T10:34:15;100818.06;;;20.45;71.52
69751;BME280;57335;52.288;6.056;2023-09-19T10:36:44;100818.91;;;20.30;71.64
69751;BME280;57335;52.288;6.056;2023-09-19T10:39:14;100810.47;;;20.02;72.01
69751;BME280;57335;52.288;6.056;2023-09-19T10:41:53;100816.09;;;19.85;72.35
69751;BME280;57335;52.288;6.056;2023-09-19T10:44:25;100817.72;;;19.71;73.81
69751;BME280;57335;52.288;6.056;2023-09-19T10:46:52;100838.44;;;19.69;76.31
69751;BME280;57335;52.288;6.056;2023-09-19T10:49:21;100820.59;;;19.69;78.55
69751;BME280;57335;52.288;6.056;2023-09-19T10:51:50;100824.63;;;19.77;78.21
69751;BME280;57335;52.288;6.056;2023-09-19T10:54:22;100805.19;;;19.82;74.47
69751;BME280;57335;52.288;6.056;2023-09-19T10:56:53;100805.19;;;19.87;74.24
69751;BME280;57335;52.288;6.056;2023-09-19T10:59:21;100804.66;;;19.80;74.40
69751;BME280;57335;52.288;6.056;2023-09-19T11:01:53;100789.25;;;19.71;75.91
69751;BME280;57335;52.288;6.056;2023-09-19T11:04:31;100795.38;;;19.72;75.55
69751;BME280;57335;52.288;6.056;2023-09-19T11:09:54;100785.00;;;19.70;75.76
69751;BME280;57335;52.288;6.056;2023-09-19T11:15:09;100762.09;;;19.64;76.64
69751;BME280;57335;52.288;6.056;2023-09-19T11:17:39;100763.97;;;19.69;78.59
69751;BME280;57335;52.288;6.056;2023-09-19T11:25:43;100773.53;;;19.90;77.19
69751;BME280;57335;52.288;6.056;2023-09-19T11:30:51;100777.56;;;19.83;76.94
69751;BME280;57335;52.288;6.056;2023-09-19T11:33:23;100781.25;;;19.82;77.46
69751;BME280;57335;52.288;6.056;2023-09-19T11:46:27;100756.03;;;19.48;82.29
69751;BME280;57335;52.288;6.056;2023-09-19T11:48:55;100757.09;;;19.37;81.02
69751;BME280;57335;52.288;6.056;2023-09-19T11:51:40;100756.84;;;19.33;80.30
69751;BME280;57335;52.288;6.056;2023-09-19T11:54:10;100747.00;;;19.34;82.20
69751;BME280;57335;52.288;6.056;2023-09-19T11:56:45;100761.09;;;19.40;81.53
69751;BME280;57335;52.288;6.056;2023-09-19T11:59:19;100749.13;;;19.37;78.61
69751;BME280;57335;52.288;6.056;2023-09-19T12:01:52;100766.41;;;19.40;80.30
69751;BME280;57335;52.288;6.056;2023-09-19T12:04:43;100767.47;;;19.44;80.40
69751;BME280;57335;52.288;6.056;2023-09-19T12:07:12;100765.34;;;19.36;81.07
69751;BME280;57335;52.288;6.056;2023-09-19T12:09:44;100764.00;;;19.38;81.77
69751;BME280;57335;52.288;6.056;2023-09-19T12:12:24;100754.97;;;19.29;80.41
69751;BME280;57335;52.288;6.056;2023-09-19T12:14:55;100760.03;;;19.25;80.92
69751;BME280;57335;52.288;6.056;2023-09-19T12:17:38;100770.66;;;19.30;81.96
69751;BME280;57335;52.288;6.056;2023-09-19T12:20:11;100762.69;;;19.30;79.41
69751;BME280;57335;52.288;6.056;2023-09-19T12:22:45;100763.75;;;19.35;81.66
69751;BME280;57335;52.288;6.056;2023-09-19T12:25:13;100755.25;;;19.32;80.20
69751;BME280;57335;52.288;6.056;2023-09-19T12:27:43;100765.34;;;19.41;80.46
69751;BME280;57335;52.288;6.056;2023-09-19T12:30:10;100763.75;;;19.45;79.26
69751;BME280;57335;52.288;6.056;2023-09-19T12:32:53;100748.88;;;19.28;78.50
69751;BME280;57335;52.288;6.056;2023-09-19T12:35:30;100763.22;;;19.27;80.05
69751;BME280;57335;52.288;6.056;2023-09-19T12:38:02;100766.94;;;19.11;79.42
69751;BME280;57335;52.288;6.056;2023-09-19T12:40:30;100739.28;;;18.81;80.03
69751;BME280;57335;52.288;6.056;2023-09-19T12:43:00;100747.50;;;18.85;80.69
69751;BME280;57335;52.288;6.056;2023-09-19T12:45:30;100737.38;;;18.66;80.21
69751;BME280;57335;52.288;6.056;2023-09-19T12:48:19;100755.16;;;18.71;82.26
69751;BME280;57335;52.288;6.056;2023-09-19T12:51:00;100741.59;;;18.67;84.79
69751;BME280;57335;52.288;6.056;2023-09-19T12:53:28;100736.03;;;18.69;84.70
69751;BME280;57335;52.288;6.056;2023-09-19T12:55:58;100748.25;;;18.70;83.50
69751;BME280;57335;52.288;6.056;2023-09-19T12:58:25;100737.63;;;18.70;82.73
69751;BME280;57335;52.288;6.056;2023-09-19T13:00:53;100755.16;;;18.71;83.26
69751;BME280;57335;52.288;6.056;2023-09-19T13:03:27;100741.34;;;18.69;82.98
69751;BME280;57335;52.288;6.056;2023-09-19T13:06:02;100741.34;;;18.69;84.23
69751;BME280;57335;52.288;6.056;2023-09-19T13:08:38;100732.53;;;18.58;82.71
69751;BME280;57335;52.288;6.056;2023-09-19T13:11:12;100741.59;;;18.62;83.15
69751;BME280;57335;52.288;6.056;2023-09-19T13:13:44;100742.69;;;18.66;83.21
69751;BME280;57335;52.288;6.056;2023-09-19T13:16:16;100754.34;;;18.60;82.04
69751;BME280;57335;52.288;6.056;2023-09-19T13:18:51;100741.56;;;18.47;81.44
69751;BME280;57335;52.288;6.056;2023-09-19T13:21:30;100751.38;;;18.46;82.06
69751;BME280;57335;52.288;6.056;2023-09-19T13:24:19;100737.00;;;18.37;81.45
69751;BME280;57335;52.288;6.056;2023-09-19T13:26:45;100738.34;;;18.40;82.85
69751;BME280;57335;52.288;6.056;2023-09-19T13:29:12;100732.50;;;18.32;82.56
69751;BME280;57335;52.288;6.056;2023-09-19T13:31:40;100733.03;;;18.34;83.50
69751;BME280;57335;52.288;6.056;2023-09-19T13:34:08;100741.84;;;18.56;83.90
69751;BME280;57335;52.288;6.056;2023-09-19T13:36:34;100735.75;;;18.55;84.97
69751;BME280;57335;52.288;6.056;2023-09-19T13:39:01;100734.97;;;18.65;83.94